sensor_id;sensor_type;location;lat;lon;timestamp;P1;durP1;ratioP1;P2;durP2;ratioP2
56927;SDS011;60850;52.502;13.426;2023-04-24T00:00:29;5.65;;;3.80;;
56927;SDS011;60850;52.502;13.426;2023-04-24T00:03:17;4.93;;;3.95;;
56927;SDS011;60850;52.502;13.426;2023-04-24T00:05:46;6.10;;;4.30;;
56927;SDS011;60850;52.502;13.426;2023-04-24T00:08:13;5.03;;;4.15;;
56927;SDS011;60850;52.502;13.426;2023-04-24T00:10:40;7.13;;;4.47;;
56927;SDS011;60850;52.502;13.426;2023-04-24T00:13:07;8.27;;;4.50;;
56927;SDS011;60850;52.502;13.426;2023-04-24T00:15:34;5.95;;;3.80;;
56927;SDS011;60850;52.502;13.426;2023-04-24T00:18:01;7.28;;;4.45;;
56927;SDS011;60850;52.502;13.426;2023-04-24T00:20:30;6.38;;;4.40;;
56927;SDS011;60850;52.502;13.426;2023-04-24T00:22:57;6.25;;;4.43;;
56927;SDS011;60850;52.502;13.426;2023-04-24T00:25:24;7.75;;;4.60;;
56927;SDS011;60850;52.502;13.426;2023-04-24T00:27:51;6.68;;;5.03;;
56927;SDS011;60850;52.502;13.426;2023-04-24T00:30:18;6.60;;;4.35;;
56927;SDS011;60850;52.502;13.426;2023-04-24T00:32:46;5.97;;;4.47;;
56927;SDS011;60850;52.502;13.426;2023-04-24T00:35:13;6.95;;;4.35;;
56927;SDS011;60850;52.502;13.426;2023-04-24T00:37:41;6.93;;;4.85;;
56927;SDS011;60850;52.502;13.426;2023-04-24T00:40:09;6.43;;;4.43;;
56927;SDS011;60850;52.502;13.426;2023-04-24T00:42:36;6.70;;;4.63;;
56927;SDS011;60850;52.502;13.426;2023-04-24T00:45:04;5.68;;;3.97;;
56927;SDS011;60850;52.502;13.426;2023-04-24T00:47:32;6.97;;;4.93;;
56927;SDS011;60850;52.502;13.426;2023-04-24T00:50:00;6.90;;;4.50;;
56927;SDS011;60850;52.502;13.426;2023-04-24T00:52:28;5.32;;;4.22;;
56927;SDS011;60850;52.502;13.426;2023-04-24T00:54:58;7.78;;;4.43;;
56927;SDS011;60850;52.502;13.426;2023-04-24T00:57:25;8.10;;;4.90;;
56927;SDS011;60850;52.502;13.426;2023-04-24T00:59:53;6.97;;;4.88;;
56927;SDS011;60850;52.502;13.426;2023-04-24T01:02:21;7.15;;;4.57;;
56927;SDS011;60850;52.502;13.426;2023-04-24T01:04:50;6.50;;;4.57;;
56927;SDS011;60850;52.502;13.426;2023-04-24T01:07:18;5.88;;;3.90;;
56927;SDS011;60850;52.502;13.426;2023-04-24T01:09:46;6.72;;;4.07;;
56927;SDS011;60850;52.502;13.426;2023-04-24T01:12:17;6.80;;;4.68;;
56927;SDS011;60850;52.502;13.426;2023-04-24T01:14:45;6.88;;;4.13;;
56927;SDS011;60850;52.502;13.426;2023-04-24T01:17:12;6.07;;;4.32;;
56927;SDS011;60850;52.502;13.426;2023-04-24T01:19:39;5.43;;;3.88;;
56927;SDS011;60850;52.502;13.426;2023-04-24T01:22:11;6.22;;;3.92;;
56927;SDS011;60850;52.502;13.426;2023-04-24T01:24:39;6.05;;;4.72;;
56927;SDS011;60850;52.502;13.426;2023-04-24T01:27:07;5.32;;;4.30;;
56927;SDS011;60850;52.502;13.426;2023-04-24T01:29:34;10.02;;;4.57;;
56927;SDS011;60850;52.502;13.426;2023-04-24T01:32:02;4.90;;;4.10;;
56927;SDS011;60850;52.502;13.426;2023-04-24T01:34:30;5.57;;;4.53;;
56927;SDS011;60850;52.502;13.426;2023-04-24T01:36:57;6.68;;;4.50;;
56927;SDS011;60850;52.502;13.426;2023-04-24T01:39:26;6.13;;;4.78;;
56927;SDS011;60850;52.502;13.426;2023-04-24T01:41:53;6.32;;;4.57;;
56927;SDS011;60850;52.502;13.426;2023-04-24T01:44:21;6.65;;;4.95;;
56927;SDS011;60850;52.502;13.426;2023-04-24T01:46:48;7.30;;;5.13;;
56927;SDS011;60850;52.502;13.426;2023-04-24T01:49:15;8.55;;;5.05;;
56927;SDS011;60850;52.502;13.426;2023-04-24T01:51:42;8.85;;;4.90;;
56927;SDS011;60850;52.502;13.426;2023-04-24T01:54:09;7.95;;;5.30;;
56927;SDS011;60850;52.502;13.426;2023-04-24T01:56:37;6.45;;;5.07;;
56927;SDS011;60850;52.502;13.426;2023-04-24T01:59:09;7.50;;;4.45;;
56927;SDS011;60850;52.502;13.426;2023-04-24T02:01:36;5.88;;;4.43;;
56927;SDS011;60850;52.502;13.426;2023-04-24T02:04:04;6.82;;;5.22;;
56927;SDS011;60850;52.502;13.426;2023-04-24T02:06:31;6.75;;;5.00;;
56927;SDS011;60850;52.502;13.426;2023-04-24T02:08:58;6.85;;;5.03;;
56927;SDS011;60850;52.502;13.426;2023-04-24T02:11:26;5.65;;;4.53;;
56927;SDS011;60850;52.502;13.426;2023-04-24T02:13:54;8.02;;;4.97;;
56927;SDS011;60850;52.502;13.426;2023-04-24T02:16:21;9.57;;;5.28;;
56927;SDS011;60850;52.502;13.426;2023-04-24T02:18:48;6.10;;;4.88;;
56927;SDS011;60850;52.502;13.426;2023-04-24T02:21:15;6.70;;;5.00;;
56927;SDS011;60850;52.502;13.426;2023-04-24T02:23:42;6.72;;;5.20;;
56927;SDS011;60850;52.502;13.426;2023-04-24T02:26:09;7.25;;;5.22;;
56927;SDS011;60850;52.502;13.426;2023-04-24T02:28:37;6.35;;;4.90;;
56927;SDS011;60850;52.502;13.426;2023-04-24T02:31:05;6.78;;;4.85;;
56927;SDS011;60850;52.502;13.426;2023-04-24T02:33:32;7.65;;;5.45;;
56927;SDS011;60850;52.502;13.426;2023-04-24T02:36:00;7.40;;;4.70;;
56927;SDS011;60850;52.502;13.426;2023-04-24T02:38:28;6.72;;;5.00;;
56927;SDS011;60850;52.502;13.426;2023-04-24T02:40:55;8.27;;;6.00;;
56927;SDS011;60850;52.502;13.426;2023-04-24T02:43:22;7.03;;;5.18;;
56927;SDS011;60850;52.502;13.426;2023-04-24T02:45:49;8.68;;;5.43;;
56927;SDS011;60850;52.502;13.426;2023-04-24T02:48:17;6.43;;;4.75;;
56927;SDS011;60850;52.502;13.426;2023-04-24T02:50:46;7.28;;;5.00;;
56927;SDS011;60850;52.502;13.426;2023-04-24T02:53:13;8.75;;;5.18;;
56927;SDS011;60850;52.502;13.426;2023-04-24T02:55:40;6.68;;;5.32;;
56927;SDS011;60850;52.502;13.426;2023-04-24T02:58:07;8.38;;;5.07;;
56927;SDS011;60850;52.502;13.426;2023-04-24T03:00:34;9.55;;;6.15;;
56927;SDS011;60850;52.502;13.426;2023-04-24T03:03:01;7.13;;;5.25;;
56927;SDS011;60850;52.502;13.426;2023-04-24T03:05:29;8.80;;;5.78;;
56927;SDS011;60850;52.502;13.426;2023-04-24T03:07:57;7.75;;;5.30;;
56927;SDS011;60850;52.502;13.426;2023-04-24T03:10:24;6.82;;;5.13;;
56927;SDS011;60850;52.502;13.426;2023-04-24T03:12:51;8.07;;;5.25;;
56927;SDS011;60850;52.502;13.426;2023-04-24T03:15:18;7.95;;;5.13;;
56927;SDS011;60850;52.502;13.426;2023-04-24T03:17:45;6.65;;;5.07;;
56927;SDS011;60850;52.502;13.426;2023-04-24T03:20:12;7.35;;;5.18;;
56927;SDS011;60850;52.502;13.426;2023-04-24T03:22:41;6.72;;;5.10;;
56927;SDS011;60850;52.502;13.426;2023-04-24T03:25:08;8.63;;;5.45;;
56927;SDS011;60850;52.502;13.426;2023-04-24T03:27:35;6.95;;;4.95;;
56927;SDS011;60850;52.502;13.426;2023-04-24T03:30:03;8.75;;;5.38;;
56927;SDS011;60850;52.502;13.426;2023-04-24T03:32:30;8.02;;;5.22;;
56927;SDS011;60850;52.502;13.426;2023-04-24T03:34:57;7.63;;;5.55;;
56927;SDS011;60850;52.502;13.426;2023-04-24T03:37:24;7.68;;;5.20;;
56927;SDS011;60850;52.502;13.426;2023-04-24T03:39:53;6.35;;;4.57;;
56927;SDS011;60850;52.502;13.426;2023-04-24T03:42:20;7.38;;;5.35;;
56927;SDS011;60850;52.502;13.426;2023-04-24T03:44:47;6.93;;;5.63;;
56927;SDS011;60850;52.502;13.426;2023-04-24T03:47:14;9.23;;;5.45;;
56927;SDS011;60850;52.502;13.426;2023-04-24T03:49:41;6.38;;;4.97;;
56927;SDS011;60850;52.502;13.426;2023-04-24T03:52:08;7.35;;;5.05;;
56927;SDS011;60850;52.502;13.426;2023-04-24T03:54:34;8.35;;;5.20;;
56927;SDS011;60850;52.502;13.426;2023-04-24T03:57:03;7.93;;;4.93;;
56927;SDS011;60850;52.502;13.426;2023-04-24T03:59:30;7.00;;;6.00;;
56927;SDS011;60850;52.502;13.426;2023-04-24T04:01:57;7.35;;;5.20;;
56927;SDS011;60850;52.502;13.426;2023-04-24T04:04:24;5.95;;;4.78;;
56927;SDS011;60850;52.502;13.426;2023-04-24T04:06:51;5.72;;;5.10;;
56927;SDS011;60850;52.502;13.426;2023-04-24T04:09:18;5.97;;;4.82;;
56927;SDS011;60850;52.502;13.426;2023-04-24T04:11:45;7.75;;;4.95;;
56927;SDS011;60850;52.502;13.426;2023-04-24T04:14:13;7.30;;;4.93;;
56927;SDS011;60850;52.502;13.426;2023-04-24T04:16:40;9.18;;;5.78;;
56927;SDS011;60850;52.502;13.426;2023-04-24T04:19:08;6.95;;;5.45;;
56927;SDS011;60850;52.502;13.426;2023-04-24T04:21:35;7.03;;;5.00;;
56927;SDS011;60850;52.502;13.426;2023-04-24T04:24:02;6.13;;;5.03;;
56927;SDS011;60850;52.502;13.426;2023-04-24T04:26:30;6.63;;;4.78;;
56927;SDS011;60850;52.502;13.426;2023-04-24T04:28:58;5.75;;;4.75;;
56927;SDS011;60850;52.502;13.426;2023-04-24T04:31:27;9.73;;;5.20;;
56927;SDS011;60850;52.502;13.426;2023-04-24T04:33:54;6.53;;;4.63;;
56927;SDS011;60850;52.502;13.426;2023-04-24T04:36:21;6.32;;;5.20;;
56927;SDS011;60850;52.502;13.426;2023-04-24T04:38:49;6.80;;;5.22;;
56927;SDS011;60850;52.502;13.426;2023-04-24T04:41:16;8.55;;;5.00;;
56927;SDS011;60850;52.502;13.426;2023-04-24T04:43:43;6.50;;;4.80;;
56927;SDS011;60850;52.502;13.426;2023-04-24T04:46:11;6.53;;;4.90;;
56927;SDS011;60850;52.502;13.426;2023-04-24T04:48:40;6.90;;;5.30;;
56927;SDS011;60850;52.502;13.426;2023-04-24T04:51:07;5.82;;;4.90;;
56927;SDS011;60850;52.502;13.426;2023-04-24T04:53:34;8.88;;;4.72;;
56927;SDS011;60850;52.502;13.426;2023-04-24T04:56:01;7.93;;;5.13;;
56927;SDS011;60850;52.502;13.426;2023-04-24T04:58:28;5.75;;;4.18;;
56927;SDS011;60850;52.502;13.426;2023-04-24T05:00:56;5.53;;;4.75;;
56927;SDS011;60850;52.502;13.426;2023-04-24T05:03:23;6.32;;;4.80;;
56927;SDS011;60850;52.502;13.426;2023-04-24T05:05:52;6.30;;;4.88;;
56927;SDS011;60850;52.502;13.426;2023-04-24T05:08:18;5.70;;;4.43;;
56927;SDS011;60850;52.502;13.426;2023-04-24T05:10:46;6.45;;;4.70;;
56927;SDS011;60850;52.502;13.426;2023-04-24T05:13:12;7.05;;;4.88;;
56927;SDS011;60850;52.502;13.426;2023-04-24T05:15:39;7.82;;;4.97;;
56927;SDS011;60850;52.502;13.426;2023-04-24T05:18:06;7.85;;;4.82;;
56927;SDS011;60850;52.502;13.426;2023-04-24T05:20:33;6.18;;;4.38;;
56927;SDS011;60850;52.502;13.426;2023-04-24T05:23:02;8.23;;;4.55;;
56927;SDS011;60850;52.502;13.426;2023-04-24T05:25:29;5.68;;;4.47;;
56927;SDS011;60850;52.502;13.426;2023-04-24T05:27:57;5.45;;;4.30;;
56927;SDS011;60850;52.502;13.426;2023-04-24T05:30:24;6.78;;;4.28;;
56927;SDS011;60850;52.502;13.426;2023-04-24T05:32:51;5.43;;;3.63;;
56927;SDS011;60850;52.502;13.426;2023-04-24T05:35:18;5.32;;;3.75;;
56927;SDS011;60850;52.502;13.426;2023-04-24T05:37:45;5.63;;;3.70;;
56927;SDS011;60850;52.502;13.426;2023-04-24T05:40:14;4.72;;;3.17;;
56927;SDS011;60850;52.502;13.426;2023-04-24T05:42:41;3.75;;;2.75;;
56927;SDS011;60850;52.502;13.426;2023-04-24T05:45:08;3.60;;;2.75;;
56927;SDS011;60850;52.502;13.426;2023-04-24T05:47:40;4.72;;;2.60;;
56927;SDS011;60850;52.502;13.426;2023-04-24T05:50:07;2.20;;;1.90;;
56927;SDS011;60850;52.502;13.426;2023-04-24T05:52:34;5.40;;;2.40;;
56927;SDS011;60850;52.502;13.426;2023-04-24T05:55:01;2.30;;;1.70;;
56927;SDS011;60850;52.502;13.426;2023-04-24T05:57:30;3.88;;;1.85;;
56927;SDS011;60850;52.502;13.426;2023-04-24T05:59:57;2.42;;;2.10;;
56927;SDS011;60850;52.502;13.426;2023-04-24T06:02:24;2.30;;;1.88;;
56927;SDS011;60850;52.502;13.426;2023-04-24T06:04:51;2.25;;;1.77;;
56927;SDS011;60850;52.502;13.426;2023-04-24T06:07:18;4.85;;;1.50;;
56927;SDS011;60850;52.502;13.426;2023-04-24T06:09:45;4.35;;;1.33;;
56927;SDS011;60850;52.502;13.426;2023-04-24T06:12:12;1.50;;;1.25;;
56927;SDS011;60850;52.502;13.426;2023-04-24T06:14:41;4.20;;;1.27;;
56927;SDS011;60850;52.502;13.426;2023-04-24T06:17:08;2.42;;;1.23;;
56927;SDS011;60850;52.502;13.426;2023-04-24T06:19:35;2.15;;;1.30;;
56927;SDS011;60850;52.502;13.426;2023-04-24T06:22:02;2.00;;;1.23;;
56927;SDS011;60850;52.502;13.426;2023-04-24T06:24:29;1.88;;;1.30;;
56927;SDS011;60850;52.502;13.426;2023-04-24T06:26:56;3.03;;;1.40;;
56927;SDS011;60850;52.502;13.426;2023-04-24T06:29:24;2.53;;;1.55;;
56927;SDS011;60850;52.502;13.426;2023-04-24T06:31:52;1.70;;;1.27;;
56927;SDS011;60850;52.502;13.426;2023-04-24T06:34:20;2.33;;;1.38;;
56927;SDS011;60850;52.502;13.426;2023-04-24T06:36:47;1.90;;;1.35;;
56927;SDS011;60850;52.502;13.426;2023-04-24T06:39:14;4.40;;;1.67;;
56927;SDS011;60850;52.502;13.426;2023-04-24T06:41:41;4.05;;;1.30;;
56927;SDS011;60850;52.502;13.426;2023-04-24T06:44:08;3.33;;;1.23;;
56927;SDS011;60850;52.502;13.426;2023-04-24T06:46:35;1.90;;;1.27;;
56927;SDS011;60850;52.502;13.426;2023-04-24T06:49:03;2.35;;;1.05;;
56927;SDS011;60850;52.502;13.426;2023-04-24T06:51:30;1.60;;;1.00;;
56927;SDS011;60850;52.502;13.426;2023-04-24T06:53:58;1.63;;;1.10;;
56927;SDS011;60850;52.502;13.426;2023-04-24T06:56:25;1.73;;;1.13;;
56927;SDS011;60850;52.502;13.426;2023-04-24T06:58:54;3.00;;;1.88;;
56927;SDS011;60850;52.502;13.426;2023-04-24T07:01:21;1.00;;;0.90;;
56927;SDS011;60850;52.502;13.426;2023-04-24T07:03:48;1.42;;;1.00;;
56927;SDS011;60850;52.502;13.426;2023-04-24T07:06:16;5.47;;;1.08;;
56927;SDS011;60850;52.502;13.426;2023-04-24T07:08:46;1.73;;;1.20;;
56927;SDS011;60850;52.502;13.426;2023-04-24T07:11:13;1.30;;;1.00;;
56927;SDS011;60850;52.502;13.426;2023-04-24T07:13:41;4.45;;;1.08;;
56927;SDS011;60850;52.502;13.426;2023-04-24T07:16:08;1.48;;;0.77;;
56927;SDS011;60850;52.502;13.426;2023-04-24T07:18:35;1.58;;;0.80;;
56927;SDS011;60850;52.502;13.426;2023-04-24T07:21:02;1.52;;;0.93;;
56927;SDS011;60850;52.502;13.426;2023-04-24T07:23:31;2.08;;;0.98;;
56927;SDS011;60850;52.502;13.426;2023-04-24T07:25:58;1.65;;;0.90;;
56927;SDS011;60850;52.502;13.426;2023-04-24T07:28:25;1.15;;;0.60;;
56927;SDS011;60850;52.502;13.426;2023-04-24T07:30:52;2.50;;;0.63;;
56927;SDS011;60850;52.502;13.426;2023-04-24T07:33:19;0.50;;;0.50;;
56927;SDS011;60850;52.502;13.426;2023-04-24T07:35:46;0.82;;;0.50;;
56927;SDS011;60850;52.502;13.426;2023-04-24T07:38:13;1.35;;;0.60;;
56927;SDS011;60850;52.502;13.426;2023-04-24T07:40:41;1.75;;;0.65;;
56927;SDS011;60850;52.502;13.426;2023-04-24T07:43:09;2.08;;;0.57;;
56927;SDS011;60850;52.502;13.426;2023-04-24T07:45:35;2.15;;;0.52;;
56927;SDS011;60850;52.502;13.426;2023-04-24T07:48:03;1.13;;;0.70;;
56927;SDS011;60850;52.502;13.426;2023-04-24T07:50:30;1.92;;;0.60;;
56927;SDS011;60850;52.502;13.426;2023-04-24T07:52:57;1.27;;;0.55;;
56927;SDS011;60850;52.502;13.426;2023-04-24T07:55:24;2.88;;;0.60;;
56927;SDS011;60850;52.502;13.426;2023-04-24T07:57:52;0.70;;;0.40;;
56927;SDS011;60850;52.502;13.426;2023-04-24T08:00:19;2.00;;;0.65;;
56927;SDS011;60850;52.502;13.426;2023-04-24T08:02:47;0.95;;;0.50;;
56927;SDS011;60850;52.502;13.426;2023-04-24T08:05:14;1.35;;;0.40;;
56927;SDS011;60850;52.502;13.426;2023-04-24T08:07:41;0.50;;;0.40;;
56927;SDS011;60850;52.502;13.426;2023-04-24T08:10:09;1.10;;;0.40;;
56927;SDS011;60850;52.502;13.426;2023-04-24T08:12:37;0.77;;;0.50;;
56927;SDS011;60850;52.502;13.426;2023-04-24T08:15:06;1.02;;;0.60;;
56927;SDS011;60850;52.502;13.426;2023-04-24T08:17:34;2.30;;;1.45;;
56927;SDS011;60850;52.502;13.426;2023-04-24T08:20:01;1.67;;;1.02;;
56927;SDS011;60850;52.502;13.426;2023-04-24T08:22:30;0.95;;;0.65;;
56927;SDS011;60850;52.502;13.426;2023-04-24T08:24:59;0.98;;;0.60;;
56927;SDS011;60850;52.502;13.426;2023-04-24T08:27:27;1.48;;;0.40;;
56927;SDS011;60850;52.502;13.426;2023-04-24T08:29:54;1.30;;;0.40;;
56927;SDS011;60850;52.502;13.426;2023-04-24T08:32:22;3.15;;;0.50;;
56927;SDS011;60850;52.502;13.426;2023-04-24T08:34:49;2.30;;;0.50;;
56927;SDS011;60850;52.502;13.426;2023-04-24T08:37:18;4.00;;;0.70;;
56927;SDS011;60850;52.502;13.426;2023-04-24T08:39:45;1.02;;;0.50;;
56927;SDS011;60850;52.502;13.426;2023-04-24T08:42:12;1.15;;;0.60;;
56927;SDS011;60850;52.502;13.426;2023-04-24T08:44:40;1.63;;;0.68;;
56927;SDS011;60850;52.502;13.426;2023-04-24T08:47:08;1.42;;;0.60;;
56927;SDS011;60850;52.502;13.426;2023-04-24T08:49:38;2.75;;;1.00;;
56927;SDS011;60850;52.502;13.426;2023-04-24T08:52:05;1.40;;;0.60;;
56927;SDS011;60850;52.502;13.426;2023-04-24T08:54:33;0.50;;;0.40;;
56927;SDS011;60850;52.502;13.426;2023-04-24T08:57:01;0.70;;;0.50;;
56927;SDS011;60850;52.502;13.426;2023-04-24T08:59:29;1.00;;;0.90;;
56927;SDS011;60850;52.502;13.426;2023-04-24T09:01:57;1.40;;;0.35;;
56927;SDS011;60850;52.502;13.426;2023-04-24T09:04:24;1.05;;;0.45;;
56927;SDS011;60850;52.502;13.426;2023-04-24T09:06:55;1.23;;;0.63;;
56927;SDS011;60850;52.502;13.426;2023-04-24T09:09:23;0.75;;;0.40;;
56927;SDS011;60850;52.502;13.426;2023-04-24T09:11:51;2.03;;;0.55;;
56927;SDS011;60850;52.502;13.426;2023-04-24T09:14:20;1.08;;;0.45;;
56927;SDS011;60850;52.502;13.426;2023-04-24T09:16:49;1.75;;;0.50;;
56927;SDS011;60850;52.502;13.426;2023-04-24T09:19:17;3.47;;;0.70;;
56927;SDS011;60850;52.502;13.426;2023-04-24T09:21:45;1.77;;;0.60;;
56927;SDS011;60850;52.502;13.426;2023-04-24T09:24:16;0.93;;;0.50;;
56927;SDS011;60850;52.502;13.426;2023-04-24T09:26:48;1.30;;;0.60;;
56927;SDS011;60850;52.502;13.426;2023-04-24T09:29:16;1.17;;;0.43;;
56927;SDS011;60850;52.502;13.426;2023-04-24T09:31:43;0.70;;;0.40;;
56927;SDS011;60850;52.502;13.426;2023-04-24T09:34:11;0.47;;;0.30;;
56927;SDS011;60850;52.502;13.426;2023-04-24T09:36:39;0.50;;;0.50;;
56927;SDS011;60850;52.502;13.426;2023-04-24T09:39:09;2.53;;;0.50;;
56927;SDS011;60850;52.502;13.426;2023-04-24T09:41:44;2.50;;;1.05;;
56927;SDS011;60850;52.502;13.426;2023-04-24T09:44:12;1.98;;;0.90;;
56927;SDS011;60850;52.502;13.426;2023-04-24T09:46:41;2.33;;;0.90;;
56927;SDS011;60850;52.502;13.426;2023-04-24T09:49:09;5.03;;;0.80;;
56927;SDS011;60850;52.502;13.426;2023-04-24T09:51:40;2.22;;;0.68;;
56927;SDS011;60850;52.502;13.426;2023-04-24T09:54:13;0.95;;;0.57;;
56927;SDS011;60850;52.502;13.426;2023-04-24T09:56:44;1.85;;;0.50;;
56927;SDS011;60850;52.502;13.426;2023-04-24T09:59:12;1.42;;;0.50;;
56927;SDS011;60850;52.502;13.426;2023-04-24T10:01:40;2.85;;;0.52;;
56927;SDS011;60850;52.502;13.426;2023-04-24T10:04:16;1.38;;;0.60;;
56927;SDS011;60850;52.502;13.426;2023-04-24T10:06:44;1.92;;;0.68;;
56927;SDS011;60850;52.502;13.426;2023-04-24T10:09:12;2.70;;;0.50;;
56927;SDS011;60850;52.502;13.426;2023-04-24T10:11:41;3.28;;;0.80;;
56927;SDS011;60850;52.502;13.426;2023-04-24T10:14:13;2.00;;;0.82;;
56927;SDS011;60850;52.502;13.426;2023-04-24T10:16:41;0.80;;;0.57;;
56927;SDS011;60850;52.502;13.426;2023-04-24T10:19:09;1.00;;;0.70;;
56927;SDS011;60850;52.502;13.426;2023-04-24T10:21:38;1.88;;;0.70;;
56927;SDS011;60850;52.502;13.426;2023-04-24T10:24:08;0.70;;;0.60;;
56927;SDS011;60850;52.502;13.426;2023-04-24T10:26:35;2.15;;;0.70;;
56927;SDS011;60850;52.502;13.426;2023-04-24T10:29:03;1.05;;;0.52;;
56927;SDS011;60850;52.502;13.426;2023-04-24T10:31:36;1.88;;;1.10;;
56927;SDS011;60850;52.502;13.426;2023-04-24T10:34:04;1.75;;;0.60;;
56927;SDS011;60850;52.502;13.426;2023-04-24T10:36:31;1.77;;;0.68;;
56927;SDS011;60850;52.502;13.426;2023-04-24T10:39:01;1.02;;;0.68;;
56927;SDS011;60850;52.502;13.426;2023-04-24T10:41:30;1.15;;;0.75;;
56927;SDS011;60850;52.502;13.426;2023-04-24T10:44:04;1.73;;;0.55;;
56927;SDS011;60850;52.502;13.426;2023-04-24T10:46:32;1.80;;;1.00;;
56927;SDS011;60850;52.502;13.426;2023-04-24T10:49:00;0.80;;;0.65;;
56927;SDS011;60850;52.502;13.426;2023-04-24T10:51:44;1.17;;;0.50;;
56927;SDS011;60850;52.502;13.426;2023-04-24T10:54:23;0.68;;;0.50;;
56927;SDS011;60850;52.502;13.426;2023-04-24T10:56:51;1.50;;;0.60;;
56927;SDS011;60850;52.502;13.426;2023-04-24T10:59:25;1.85;;;0.70;;
56927;SDS011;60850;52.502;13.426;2023-04-24T11:01:52;1.35;;;0.70;;
56927;SDS011;60850;52.502;13.426;2023-04-24T11:04:30;1.42;;;0.63;;
56927;SDS011;60850;52.502;13.426;2023-04-24T11:06:58;0.73;;;0.50;;
56927;SDS011;60850;52.502;13.426;2023-04-24T11:09:26;1.15;;;0.60;;
56927;SDS011;60850;52.502;13.426;2023-04-24T11:12:02;1.10;;;0.50;;
56927;SDS011;60850;52.502;13.426;2023-04-24T11:17:28;3.90;;;0.98;;
56927;SDS011;60850;52.502;13.426;2023-04-24T11:20:02;6.72;;;1.25;;
56927;SDS011;60850;52.502;13.426;2023-04-24T11:22:30;2.33;;;0.80;;
56927;SDS011;60850;52.502;13.426;2023-04-24T11:25:00;3.85;;;0.85;;
56927;SDS011;60850;52.502;13.426;2023-04-24T11:27:29;2.78;;;1.00;;
56927;SDS011;60850;52.502;13.426;2023-04-24T11:29:59;1.88;;;0.70;;
56927;SDS011;60850;52.502;13.426;2023-04-24T11:32:27;3.88;;;0.70;;
56927;SDS011;60850;52.502;13.426;2023-04-24T11:34:56;0.93;;;0.73;;
56927;SDS011;60850;52.502;13.426;2023-04-24T11:37:26;0.90;;;0.60;;
56927;SDS011;60850;52.502;13.426;2023-04-24T11:39:54;2.50;;;1.27;;
56927;SDS011;60850;52.502;13.426;2023-04-24T11:42:22;1.48;;;1.17;;
56927;SDS011;60850;52.502;13.426;2023-04-24T11:44:51;2.92;;;1.15;;
56927;SDS011;60850;52.502;13.426;2023-04-24T11:47:19;2.30;;;0.95;;
56927;SDS011;60850;52.502;13.426;2023-04-24T11:49:46;1.95;;;1.02;;
56927;SDS011;60850;52.502;13.426;2023-04-24T11:52:16;2.83;;;1.23;;
56927;SDS011;60850;52.502;13.426;2023-04-24T11:54:48;2.25;;;1.15;;
56927;SDS011;60850;52.502;13.426;2023-04-24T11:57:16;2.13;;;1.30;;
56927;SDS011;60850;52.502;13.426;2023-04-24T11:59:45;0.88;;;0.80;;
56927;SDS011;60850;52.502;13.426;2023-04-24T12:02:19;2.30;;;1.27;;
56927;SDS011;60850;52.502;13.426;2023-04-24T12:04:47;4.53;;;2.05;;
56927;SDS011;60850;52.502;13.426;2023-04-24T12:07:14;2.78;;;1.00;;
56927;SDS011;60850;52.502;13.426;2023-04-24T12:09:42;3.30;;;1.77;;
56927;SDS011;60850;52.502;13.426;2023-04-24T12:12:12;4.13;;;1.95;;
56927;SDS011;60850;52.502;13.426;2023-04-24T12:14:43;6.00;;;2.47;;
56927;SDS011;60850;52.502;13.426;2023-04-24T12:17:11;3.03;;;1.33;;
56927;SDS011;60850;52.502;13.426;2023-04-24T12:19:44;2.03;;;1.15;;
56927;SDS011;60850;52.502;13.426;2023-04-24T12:22:12;4.60;;;0.85;;
56927;SDS011;60850;52.502;13.426;2023-04-24T12:27:28;2.38;;;1.30;;
56927;SDS011;60850;52.502;13.426;2023-04-24T12:29:57;3.58;;;2.17;;
56927;SDS011;60850;52.502;13.426;2023-04-24T12:32:25;4.22;;;1.88;;
56927;SDS011;60850;52.502;13.426;2023-04-24T12:34:53;3.63;;;1.15;;
56927;SDS011;60850;52.502;13.426;2023-04-24T12:40:03;1.33;;;0.70;;
56927;SDS011;60850;52.502;13.426;2023-04-24T12:42:34;1.48;;;0.75;;
56927;SDS011;60850;52.502;13.426;2023-04-24T12:45:03;3.72;;;0.90;;
56927;SDS011;60850;52.502;13.426;2023-04-24T12:47:31;1.33;;;0.60;;
56927;SDS011;60850;52.502;13.426;2023-04-24T12:49:59;1.20;;;0.50;;
56927;SDS011;60850;52.502;13.426;2023-04-24T12:52:26;1.27;;;0.75;;
56927;SDS011;60850;52.502;13.426;2023-04-24T12:54:55;2.22;;;0.70;;
56927;SDS011;60850;52.502;13.426;2023-04-24T12:57:24;2.47;;;0.60;;
56927;SDS011;60850;52.502;13.426;2023-04-24T12:59:53;1.88;;;0.93;;
56927;SDS011;60850;52.502;13.426;2023-04-24T13:02:21;4.95;;;0.80;;
56927;SDS011;60850;52.502;13.426;2023-04-24T13:04:48;2.92;;;0.70;;
56927;SDS011;60850;52.502;13.426;2023-04-24T13:07:16;2.15;;;1.23;;
56927;SDS011;60850;52.502;13.426;2023-04-24T13:09:44;1.85;;;0.70;;
56927;SDS011;60850;52.502;13.426;2023-04-24T13:12:11;0.82;;;0.60;;
56927;SDS011;60850;52.502;13.426;2023-04-24T13:14:40;1.35;;;0.70;;
56927;SDS011;60850;52.502;13.426;2023-04-24T13:17:08;2.78;;;0.77;;
56927;SDS011;60850;52.502;13.426;2023-04-24T13:19:37;2.20;;;0.57;;
56927;SDS011;60850;52.502;13.426;2023-04-24T13:22:05;3.70;;;0.60;;
56927;SDS011;60850;52.502;13.426;2023-04-24T13:24:32;1.02;;;0.55;;
56927;SDS011;60850;52.502;13.426;2023-04-24T13:27:00;1.77;;;0.60;;
56927;SDS011;60850;52.502;13.426;2023-04-24T13:29:27;1.70;;;0.60;;
56927;SDS011;60850;52.502;13.426;2023-04-24T13:31:54;0.65;;;0.57;;
56927;SDS011;60850;52.502;13.426;2023-04-24T13:34:23;2.00;;;0.50;;
56927;SDS011;60850;52.502;13.426;2023-04-24T13:36:52;3.03;;;1.23;;
56927;SDS011;60850;52.502;13.426;2023-04-24T13:39:19;0.65;;;0.52;;
56927;SDS011;60850;52.502;13.426;2023-04-24T13:41:46;1.40;;;0.68;;
56927;SDS011;60850;52.502;13.426;2023-04-24T13:44:14;4.20;;;0.70;;
56927;SDS011;60850;52.502;13.426;2023-04-24T13:46:42;2.88;;;0.90;;
56927;SDS011;60850;52.502;13.426;2023-04-24T13:49:10;0.55;;;0.55;;
56927;SDS011;60850;52.502;13.426;2023-04-24T13:51:39;1.05;;;0.60;;
56927;SDS011;60850;52.502;13.426;2023-04-24T13:54:06;1.00;;;0.70;;
56927;SDS011;60850;52.502;13.426;2023-04-24T13:56:33;4.35;;;0.80;;
56927;SDS011;60850;52.502;13.426;2023-04-24T13:59:00;1.83;;;0.70;;
56927;SDS011;60850;52.502;13.426;2023-04-24T14:01:27;2.13;;;0.52;;
56927;SDS011;60850;52.502;13.426;2023-04-24T14:03:55;0.60;;;0.52;;
56927;SDS011;60850;52.502;13.426;2023-04-24T14:06:22;2.80;;;0.70;;
56927;SDS011;60850;52.502;13.426;2023-04-24T14:08:51;4.07;;;0.75;;
56927;SDS011;60850;52.502;13.426;2023-04-24T14:11:21;2.35;;;1.00;;
56927;SDS011;60850;52.502;13.426;2023-04-24T14:13:48;0.88;;;0.60;;
56927;SDS011;60850;52.502;13.426;2023-04-24T14:16:16;1.30;;;0.98;;
56927;SDS011;60850;52.502;13.426;2023-04-24T14:18:42;1.15;;;0.65;;
56927;SDS011;60850;52.502;13.426;2023-04-24T14:21:11;2.50;;;1.10;;
56927;SDS011;60850;52.502;13.426;2023-04-24T14:23:38;2.50;;;0.80;;
56927;SDS011;60850;52.502;13.426;2023-04-24T14:26:07;1.02;;;0.75;;
56927;SDS011;60850;52.502;13.426;2023-04-24T14:28:34;2.05;;;0.75;;
56927;SDS011;60850;52.502;13.426;2023-04-24T14:31:01;0.75;;;0.50;;
56927;SDS011;60850;52.502;13.426;2023-04-24T14:33:28;3.95;;;0.88;;
56927;SDS011;60850;52.502;13.426;2023-04-24T14:35:55;1.98;;;0.90;;
56927;SDS011;60850;52.502;13.426;2023-04-24T14:38:23;1.30;;;0.88;;
56927;SDS011;60850;52.502;13.426;2023-04-24T14:40:50;2.20;;;0.90;;
56927;SDS011;60850;52.502;13.426;2023-04-24T14:43:19;1.80;;;0.95;;
56927;SDS011;60850;52.502;13.426;2023-04-24T14:45:46;3.13;;;1.00;;